sensor_id;sensor_type;location;lat;lon;timestamp;temperature;humidity
32296;DHT22;18781;51.550;5.418;2023-09-19T00:00:38;19.00;69.10
32296;DHT22;18781;51.550;5.418;2023-09-19T00:03:03;18.90;69.00
32296;DHT22;18781;51.550;5.418;2023-09-19T00:05:34;18.90;69.20
32296;DHT22;18781;51.550;5.418;2023-09-19T00:08:01;18.90;69.20
32296;DHT22;18781;51.550;5.418;2023-09-19T00:10:30;18.90;69.20
32296;DHT22;18781;51.550;5.418;2023-09-19T00:12:59;18.90;69.20
32296;DHT22;18781;51.550;5.418;2023-09-19T00:15:26;18.90;69.20
32296;DHT22;18781;51.550;5.418;2023-09-19T00:17:55;18.90;69.20
32296;DHT22;18781;51.550;5.418;2023-09-19T00:20:21;18.80;69.00
32296;DHT22;18781;51.550;5.418;2023-09-19T00:22:49;18.80;69.20
32296;DHT22;18781;51.550;5.418;2023-09-19T00:25:17;18.80;69.30
32296;DHT22;18781;51.550;5.418;2023-09-19T00:27:43;18.80;69.20
32296;DHT22;18781;51.550;5.418;2023-09-19T00:30:11;18.80;69.20
32296;DHT22;18781;51.550;5.418;2023-09-19T00:32:47;18.80;69.20
32296;DHT22;18781;51.550;5.418;2023-09-19T00:35:13;18.80;69.30
32296;DHT22;18781;51.550;5.418;2023-09-19T00:37:40;18.70;69.20
32296;DHT22;18781;51.550;5.418;2023-09-19T00:40:10;18.70;69.30
32296;DHT22;18781;51.550;5.418;2023-09-19T00:42:44;18.70;69.30
32296;DHT22;18781;51.550;5.418;2023-09-19T00:45:11;18.70;69.30
32296;DHT22;18781;51.550;5.418;2023-09-19T00:47:46;18.70;69.30
32296;DHT22;18781;51.550;5.418;2023-09-19T00:50:12;18.70;69.40
32296;DHT22;18781;51.550;5.418;2023-09-19T00:52:42;18.70;69.30
32296;DHT22;18781;51.550;5.418;2023-09-19T00:55:11;18.70;69.30
32296;DHT22;18781;51.550;5.418;2023-09-19T00:57:39;18.70;69.30
32296;DHT22;18781;51.550;5.418;2023-09-19T01:00:06;18.60;69.00
32296;DHT22;18781;51.550;5.418;2023-09-19T01:02:34;18.60;69.00
32296;DHT22;18781;51.550;5.418;2023-09-19T01:05:00;18.60;68.70
32296;DHT22;18781;51.550;5.418;2023-09-19T01:07:31;18.60;68.80
32296;DHT22;18781;51.550;5.418;2023-09-19T01:09:58;18.50;68.80
32296;DHT22;18781;51.550;5.418;2023-09-19T01:29:46;18.40;68.90
32296;DHT22;18781;51.550;5.418;2023-09-19T01:32:20;18.30;68.70
32296;DHT22;18781;51.550;5.418;2023-09-19T01:34:48;18.30;68.90
32296;DHT22;18781;51.550;5.418;2023-09-19T01:37:17;18.20;68.80
32296;DHT22;18781;51.550;5.418;2023-09-19T01:39:51;18.20;68.70
32296;DHT22;18781;51.550;5.418;2023-09-19T01:42:40;18.20;68.90
32296;DHT22;18781;51.550;5.418;2023-09-19T01:47:49;18.20;68.70
32296;DHT22;18781;51.550;5.418;2023-09-19T01:53:06;18.10;68.50
32296;DHT22;18781;51.550;5.418;2023-09-19T01:55:39;18.10;68.40
32296;DHT22;18781;51.550;5.418;2023-09-19T01:58:16;18.20;68.40
32296;DHT22;18781;51.550;5.418;2023-09-19T02:00:44;18.10;68.40
32296;DHT22;18781;51.550;5.418;2023-09-19T02:03:12;18.10;68.30
32296;DHT22;18781;51.550;5.418;2023-09-19T02:05:39;18.10;68.20
32296;DHT22;18781;51.550;5.418;2023-09-19T02:08:05;18.10;68.10
32296;DHT22;18781;51.550;5.418;2023-09-19T02:10:30;18.00;68.00
32296;DHT22;18781;51.550;5.418;2023-09-19T02:12:56;18.00;68.10
32296;DHT22;18781;51.550;5.418;2023-09-19T02:15:22;18.00;68.10
32296;DHT22;18781;51.550;5.418;2023-09-19T02:17:47;18.00;68.00
32296;DHT22;18781;51.550;5.418;2023-09-19T02:20:13;18.00;68.00
32296;DHT22;18781;51.550;5.418;2023-09-19T02:22:43;17.90;67.70
32296;DHT22;18781;51.550;5.418;2023-09-19T02:25:09;18.00;67.80
32296;DHT22;18781;51.550;5.418;2023-09-19T02:27:35;18.00;68.10
32296;DHT22;18781;51.550;5.418;2023-09-19T02:30:01;17.90;67.80
32296;DHT22;18781;51.550;5.418;2023-09-19T02:32:30;17.90;67.70
32296;DHT22;18781;51.550;5.418;2023-09-19T02:34:57;17.90;68.30
32296;DHT22;18781;51.550;5.418;2023-09-19T02:37:23;17.90;67.70
32296;DHT22;18781;51.550;5.418;2023-09-19T02:39:48;17.80;67.70
32296;DHT22;18781;51.550;5.418;2023-09-19T02:42:14;17.80;67.80
32296;DHT22;18781;51.550;5.418;2023-09-19T02:44:40;17.80;67.80
32296;DHT22;18781;51.550;5.418;2023-09-19T02:47:05;17.80;67.70
32296;DHT22;18781;51.550;5.418;2023-09-19T02:49:31;17.80;67.50
32296;DHT22;18781;51.550;5.418;2023-09-19T02:51:56;17.80;67.50
32296;DHT22;18781;51.550;5.418;2023-09-19T02:54:24;17.80;67.40
32296;DHT22;18781;51.550;5.418;2023-09-19T02:56:49;17.80;67.30
32296;DHT22;18781;51.550;5.418;2023-09-19T02:59:15;17.80;67.30
32296;DHT22;18781;51.550;5.418;2023-09-19T03:01:43;17.70;67.30
32296;DHT22;18781;51.550;5.418;2023-09-19T03:04:09;17.70;67.30
32296;DHT22;18781;51.550;5.418;2023-09-19T03:06:36;17.70;67.00
32296;DHT22;18781;51.550;5.418;2023-09-19T03:09:02;17.70;67.20
32296;DHT22;18781;51.550;5.418;2023-09-19T03:11:31;17.70;67.10
32296;DHT22;18781;51.550;5.418;2023-09-19T03:13:57;17.70;66.80
32296;DHT22;18781;51.550;5.418;2023-09-19T03:16:23;17.60;67.00
32296;DHT22;18781;51.550;5.418;2023-09-19T03:18:50;17.60;66.80
32296;DHT22;18781;51.550;5.418;2023-09-19T03:21:16;17.60;66.70
32296;DHT22;18781;51.550;5.418;2023-09-19T03:23:42;17.60;66.80
32296;DHT22;18781;51.550;5.418;2023-09-19T03:26:11;17.60;66.80
32296;DHT22;18781;51.550;5.418;2023-09-19T03:28:38;17.50;66.70
32296;DHT22;18781;51.550;5.418;2023-09-19T03:31:05;17.50;66.80
32296;DHT22;18781;51.550;5.418;2023-09-19T03:33:32;17.50;66.60
32296;DHT22;18781;51.550;5.418;2023-09-19T03:35:58;17.50;66.60
32296;DHT22;18781;51.550;5.418;2023-09-19T03:38:24;17.50;66.70
32296;DHT22;18781;51.550;5.418;2023-09-19T03:40:50;17.50;66.80
32296;DHT22;18781;51.550;5.418;2023-09-19T03:43:16;17.50;66.80
32296;DHT22;18781;51.550;5.418;2023-09-19T03:45:41;17.50;66.80
32296;DHT22;18781;51.550;5.418;2023-09-19T03:48:11;17.50;66.70
32296;DHT22;18781;51.550;5.418;2023-09-19T03:50:37;17.40;66.60
32296;DHT22;18781;51.550;5.418;2023-09-19T03:53:02;17.40;66.60
32296;DHT22;18781;51.550;5.418;2023-09-19T03:55:28;17.40;66.50
32296;DHT22;18781;51.550;5.418;2023-09-19T03:57:55;17.40;66.60
32296;DHT22;18781;51.550;5.418;2023-09-19T04:00:20;17.40;66.80
32296;DHT22;18781;51.550;5.418;2023-09-19T04:02:48;17.40;66.80
32296;DHT22;18781;51.550;5.418;2023-09-19T04:05:14;17.40;66.90
32296;DHT22;18781;51.550;5.418;2023-09-19T04:07:39;17.40;66.80
32296;DHT22;18781;51.550;5.418;2023-09-19T04:10:05;17.40;66.90
32296;DHT22;18781;51.550;5.418;2023-09-19T04:12:34;17.40;67.10
32296;DHT22;18781;51.550;5.418;2023-09-19T04:14:59;17.40;67.00
32296;DHT22;18781;51.550;5.418;2023-09-19T04:17:25;17.30;67.00
32296;DHT22;18781;51.550;5.418;2023-09-19T04:19:50;17.40;67.20
32296;DHT22;18781;51.550;5.418;2023-09-19T04:22:16;17.40;67.20
32296;DHT22;18781;51.550;5.418;2023-09-19T04:24:41;17.40;67.30
32296;DHT22;18781;51.550;5.418;2023-09-19T04:27:07;17.40;67.40
32296;DHT22;18781;51.550;5.418;2023-09-19T04:29:32;17.40;67.50
32296;DHT22;18781;51.550;5.418;2023-09-19T04:31:58;17.40;67.50
32296;DHT22;18781;51.550;5.418;2023-09-19T04:34:24;17.40;67.40
32296;DHT22;18781;51.550;5.418;2023-09-19T04:36:50;17.40;67.60
32296;DHT22;18781;51.550;5.418;2023-09-19T04:39:15;17.40;67.70
32296;DHT22;18781;51.550;5.418;2023-09-19T04:41:42;17.40;67.80
32296;DHT22;18781;51.550;5.418;2023-09-19T04:44:07;17.40;67.70
32296;DHT22;18781;51.550;5.418;2023-09-19T04:46:34;17.40;67.80
32296;DHT22;18781;51.550;5.418;2023-09-19T04:48:59;17.40;67.80
32296;DHT22;18781;51.550;5.418;2023-09-19T04:51:26;17.40;67.80
32296;DHT22;18781;51.550;5.418;2023-09-19T04:53:54;17.40;67.80
32296;DHT22;18781;51.550;5.418;2023-09-19T04:56:20;17.40;67.80
32296;DHT22;18781;51.550;5.418;2023-09-19T04:58:46;17.40;67.90
32296;DHT22;18781;51.550;5.418;2023-09-19T05:01:12;17.50;68.10
32296;DHT22;18781;51.550;5.418;2023-09-19T05:03:39;17.50;68.00
32296;DHT22;18781;51.550;5.418;2023-09-19T05:06:05;17.50;68.00
32296;DHT22;18781;51.550;5.418;2023-09-19T05:08:30;17.50;68.00
32296;DHT22;18781;51.550;5.418;2023-09-19T05:10:56;17.50;67.90
32296;DHT22;18781;51.550;5.418;2023-09-19T05:13:22;17.50;67.90
32296;DHT22;18781;51.550;5.418;2023-09-19T05:15:49;17.50;68.00
32296;DHT22;18781;51.550;5.418;2023-09-19T05:18:15;17.50;68.00
32296;DHT22;18781;51.550;5.418;2023-09-19T05:20:41;17.50;68.10
32296;DHT22;18781;51.550;5.418;2023-09-19T05:23:07;17.50;68.10
32296;DHT22;18781;51.550;5.418;2023-09-19T05:25:35;17.50;68.10
32296;DHT22;18781;51.550;5.418;2023-09-19T05:28:09;17.50;68.10
32296;DHT22;18781;51.550;5.418;2023-09-19T05:30:37;17.50;68.10
32296;DHT22;18781;51.550;5.418;2023-09-19T05:33:04;17.50;68.10
32296;DHT22;18781;51.550;5.418;2023-09-19T05:35:30;17.50;68.20
32296;DHT22;18781;51.550;5.418;2023-09-19T05:37:56;17.50;68.40
32296;DHT22;18781;51.550;5.418;2023-09-19T05:40:24;17.50;68.40
32296;DHT22;18781;51.550;5.418;2023-09-19T05:42:50;17.50;68.50
32296;DHT22;18781;51.550;5.418;2023-09-19T05:45:16;17.50;68.60
32296;DHT22;18781;51.550;5.418;2023-09-19T05:47:51;17.50;68.50
32296;DHT22;18781;51.550;5.418;2023-09-19T05:50:21;17.50;68.60
32296;DHT22;18781;51.550;5.418;2023-09-19T05:52:53;17.50;68.60
32296;DHT22;18781;51.550;5.418;2023-09-19T05:55:19;17.50;68.70
32296;DHT22;18781;51.550;5.418;2023-09-19T05:57:52;17.50;68.70
32296;DHT22;18781;51.550;5.418;2023-09-19T06:00:22;17.50;68.90
32296;DHT22;18781;51.550;5.418;2023-09-19T06:02:56;17.50;68.80
32296;DHT22;18781;51.550;5.418;2023-09-19T06:05:23;17.50;69.10
32296;DHT22;18781;51.550;5.418;2023-09-19T06:07:48;17.50;68.90
32296;DHT22;18781;51.550;5.418;2023-09-19T06:10:15;17.50;69.00
32296;DHT22;18781;51.550;5.418;2023-09-19T06:12:42;17.50;68.90
32296;DHT22;18781;51.550;5.418;2023-09-19T06:15:09;17.50;69.50
32296;DHT22;18781;51.550;5.418;2023-09-19T06:17:41;17.60;69.10
32296;DHT22;18781;51.550;5.418;2023-09-19T06:20:07;17.50;69.00
32296;DHT22;18781;51.550;5.418;2023-09-19T06:22:44;17.50;69.20
32296;DHT22;18781;51.550;5.418;2023-09-19T06:25:11;17.60;69.30
32296;DHT22;18781;51.550;5.418;2023-09-19T06:27:38;17.60;69.30
32296;DHT22;18781;51.550;5.418;2023-09-19T06:30:08;17.50;69.20
32296;DHT22;18781;51.550;5.418;2023-09-19T06:32:34;17.60;69.30
32296;DHT22;18781;51.550;5.418;2023-09-19T06:35:00;17.60;69.30
32296;DHT22;18781;51.550;5.418;2023-09-19T06:37:29;17.60;69.40
32296;DHT22;18781;51.550;5.418;2023-09-19T06:39:54;17.60;69.50
32296;DHT22;18781;51.550;5.418;2023-09-19T06:42:20;17.60;69.30
32296;DHT22;18781;51.550;5.418;2023-09-19T06:44:48;17.60;69.40
32296;DHT22;18781;51.550;5.418;2023-09-19T06:47:13;17.60;69.50
32296;DHT22;18781;51.550;5.418;2023-09-19T06:49:41;17.60;70.10
32296;DHT22;18781;51.550;5.418;2023-09-19T06:52:09;17.60;69.60
32296;DHT22;18781;51.550;5.418;2023-09-19T06:54:35;17.60;69.60
32296;DHT22;18781;51.550;5.418;2023-09-19T06:57:01;17.70;69.70
32296;DHT22;18781;51.550;5.418;2023-09-19T06:59:27;17.70;69.80
32296;DHT22;18781;51.550;5.418;2023-09-19T07:01:52;17.70;69.80
32296;DHT22;18781;51.550;5.418;2023-09-19T07:04:18;17.70;69.80
32296;DHT22;18781;51.550;5.418;2023-09-19T07:06:49;17.70;69.80
32296;DHT22;18781;51.550;5.418;2023-09-19T07:09:15;17.80;70.00
32296;DHT22;18781;51.550;5.418;2023-09-19T07:11:41;17.70;69.80
32296;DHT22;18781;51.550;5.418;2023-09-19T07:14:08;17.80;69.90
32296;DHT22;18781;51.550;5.418;2023-09-19T07:16:37;17.80;69.90
32296;DHT22;18781;51.550;5.418;2023-09-19T07:19:04;17.80;70.00
32296;DHT22;18781;51.550;5.418;2023-09-19T07:21:29;17.80;70.10
32296;DHT22;18781;51.550;5.418;2023-09-19T07:23:55;17.80;70.00
32296;DHT22;18781;51.550;5.418;2023-09-19T07:26:21;17.90;70.00
32296;DHT22;18781;51.550;5.418;2023-09-19T07:28:46;17.90;70.10
32296;DHT22;18781;51.550;5.418;2023-09-19T07:31:12;17.90;70.10
32296;DHT22;18781;51.550;5.418;2023-09-19T07:33:39;17.90;70.30
32296;DHT22;18781;51.550;5.418;2023-09-19T07:36:05;17.90;70.30
32296;DHT22;18781;51.550;5.418;2023-09-19T07:38:31;17.90;70.90
32296;DHT22;18781;51.550;5.418;2023-09-19T07:41:01;18.00;70.30
32296;DHT22;18781;51.550;5.418;2023-09-19T07:43:27;18.00;70.30
32296;DHT22;18781;51.550;5.418;2023-09-19T07:45:53;18.10;70.40
32296;DHT22;18781;51.550;5.418;2023-09-19T07:48:18;18.10;70.40
32296;DHT22;18781;51.550;5.418;2023-09-19T07:50:44;18.10;70.40
32296;DHT22;18781;51.550;5.418;2023-09-19T07:53:10;18.10;70.50
32296;DHT22;18781;51.550;5.418;2023-09-19T07:55:38;18.20;70.50
32296;DHT22;18781;51.550;5.418;2023-09-19T07:58:06;18.20;70.40
32296;DHT22;18781;51.550;5.418;2023-09-19T08:00:32;18.30;70.60
32296;DHT22;18781;51.550;5.418;2023-09-19T08:03:00;18.30;70.40
32296;DHT22;18781;51.550;5.418;2023-09-19T08:05:26;18.30;70.40
32296;DHT22;18781;51.550;5.418;2023-09-19T08:07:52;18.40;70.40
32296;DHT22;18781;51.550;5.418;2023-09-19T08:10:18;18.40;70.40
32296;DHT22;18781;51.550;5.418;2023-09-19T08:12:46;18.40;70.20
32296;DHT22;18781;51.550;5.418;2023-09-19T08:15:16;18.50;70.40
32296;DHT22;18781;51.550;5.418;2023-09-19T08:17:42;18.50;70.20
32296;DHT22;18781;51.550;5.418;2023-09-19T08:20:09;18.60;70.10
32296;DHT22;18781;51.550;5.418;2023-09-19T08:22:51;18.60;69.80
32296;DHT22;18781;51.550;5.418;2023-09-19T08:25:18;18.70;69.80
32296;DHT22;18781;51.550;5.418;2023-09-19T08:27:48;18.70;69.70
32296;DHT22;18781;51.550;5.418;2023-09-19T08:30:20;18.70;69.70
32296;DHT22;18781;51.550;5.418;2023-09-19T08:32:49;18.80;69.70
32296;DHT22;18781;51.550;5.418;2023-09-19T08:35:15;18.80;69.60
32296;DHT22;18781;51.550;5.418;2023-09-19T08:37:41;18.80;69.70
32296;DHT22;18781;51.550;5.418;2023-09-19T08:40:07;18.90;69.60
32296;DHT22;18781;51.550;5.418;2023-09-19T08:42:52;18.90;69.70
32296;DHT22;18781;51.550;5.418;2023-09-19T08:45:20;19.00;69.50
32296;DHT22;18781;51.550;5.418;2023-09-19T08:48:24;19.00;69.50
32296;DHT22;18781;51.550;5.418;2023-09-19T08:51:00;19.10;69.70
32296;DHT22;18781;51.550;5.418;2023-09-19T08:53:43;19.20;69.50
32296;DHT22;18781;51.550;5.418;2023-09-19T08:56:12;19.20;69.50
32296;DHT22;18781;51.550;5.418;2023-09-19T08:58:48;19.20;69.40
32296;DHT22;18781;51.550;5.418;2023-09-19T09:01:17;19.30;69.30
32296;DHT22;18781;51.550;5.418;2023-09-19T09:03:53;19.40;69.30
32296;DHT22;18781;51.550;5.418;2023-09-19T09:06:22;19.40;69.00
32296;DHT22;18781;51.550;5.418;2023-09-19T09:08:50;19.50;69.30
32296;DHT22;18781;51.550;5.418;2023-09-19T09:11:16;19.50;68.70
32296;DHT22;18781;51.550;5.418;2023-09-19T09:13:47;19.50;68.80
32296;DHT22;18781;51.550;5.418;2023-09-19T09:16:13;19.50;68.60
32296;DHT22;18781;51.550;5.418;2023-09-19T09:18:40;19.60;68.50
32296;DHT22;18781;51.550;5.418;2023-09-19T09:21:06;19.60;68.60
32296;DHT22;18781;51.550;5.418;2023-09-19T09:23:32;19.70;68.70
32296;DHT22;18781;51.550;5.418;2023-09-19T09:25:58;19.70;68.30
32296;DHT22;18781;51.550;5.418;2023-09-19T09:28:33;19.80;69.00
32296;DHT22;18781;51.550;5.418;2023-09-19T09:31:00;19.80;68.70
32296;DHT22;18781;51.550;5.418;2023-09-19T09:33:29;19.90;68.60
32296;DHT22;18781;51.550;5.418;2023-09-19T09:35:59;20.00;68.10
32296;DHT22;18781;51.550;5.418;2023-09-19T09:38:29;20.00;67.80
32296;DHT22;18781;51.550;5.418;2023-09-19T09:40:59;20.10;67.50
32296;DHT22;18781;51.550;5.418;2023-09-19T09:43:33;20.10;67.70
32296;DHT22;18781;51.550;5.418;2023-09-19T09:46:17;20.20;67.90
32296;DHT22;18781;51.550;5.418;2023-09-19T09:48:58;20.30;67.20
32296;DHT22;18781;51.550;5.418;2023-09-19T09:51:42;20.30;67.20
32296;DHT22;18781;51.550;5.418;2023-09-19T09:54:13;20.30;66.90
32296;DHT22;18781;51.550;5.418;2023-09-19T09:56:59;20.40;66.80
32296;DHT22;18781;51.550;5.418;2023-09-19T09:59:45;20.50;66.90
32296;DHT22;18781;51.550;5.418;2023-09-19T10:02:29;20.50;67.00
32296;DHT22;18781;51.550;5.418;2023-09-19T10:04:58;20.50;65.80
32296;DHT22;18781;51.550;5.418;2023-09-19T10:07:32;20.60;65.80
32296;DHT22;18781;51.550;5.418;2023-09-19T10:10:05;20.60;65.60
32296;DHT22;18781;51.550;5.418;2023-09-19T10:12:48;20.60;65.50
32296;DHT22;18781;51.550;5.418;2023-09-19T10:15:18;20.70;65.30
32296;DHT22;18781;51.550;5.418;2023-09-19T10:17:46;20.70;65.50
32296;DHT22;18781;51.550;5.418;2023-09-19T10:20:14;20.70;65.30
32296;DHT22;18781;51.550;5.418;2023-09-19T10:23:10;20.80;65.10
32296;DHT22;18781;51.550;5.418;2023-09-19T10:25:43;20.80;64.00
32296;DHT22;18781;51.550;5.418;2023-09-19T10:28:12;20.80;64.30
32296;DHT22;18781;51.550;5.418;2023-09-19T10:30:41;20.80;64.10
32296;DHT22;18781;51.550;5.418;2023-09-19T10:33:09;20.90;64.00
32296;DHT22;18781;51.550;5.418;2023-09-19T10:35:38;20.90;64.10
32296;DHT22;18781;51.550;5.418;2023-09-19T10:38:06;20.90;64.20
32296;DHT22;18781;51.550;5.418;2023-09-19T10:40:33;20.90;64.50
32296;DHT22;18781;51.550;5.418;2023-09-19T10:43:04;21.00;64.50
32296;DHT22;18781;51.550;5.418;2023-09-19T10:45:32;21.00;64.70
32296;DHT22;18781;51.550;5.418;2023-09-19T10:47:59;21.10;64.50
32296;DHT22;18781;51.550;5.418;2023-09-19T10:50:28;21.20;64.40
32296;DHT22;18781;51.550;5.418;2023-09-19T10:53:00;21.20;64.10
32296;DHT22;18781;51.550;5.418;2023-09-19T10:55:31;21.30;62.60
32296;DHT22;18781;51.550;5.418;2023-09-19T10:57:58;21.30;62.80
32296;DHT22;18781;51.550;5.418;2023-09-19T11:00:25;21.30;62.90
32296;DHT22;18781;51.550;5.418;2023-09-19T11:05:39;21.40;62.50
32296;DHT22;18781;51.550;5.418;2023-09-19T11:08:07;21.50;62.70
32296;DHT22;18781;51.550;5.418;2023-09-19T11:10:46;21.50;62.80
32296;DHT22;18781;51.550;5.418;2023-09-19T11:13:26;21.60;62.50
32296;DHT22;18781;51.550;5.418;2023-09-19T11:26:50;21.80;60.60
32296;DHT22;18781;51.550;5.418;2023-09-19T11:29:26;21.80;59.80
32296;DHT22;18781;51.550;5.418;2023-09-19T11:31:53;21.80;60.00
32296;DHT22;18781;51.550;5.418;2023-09-19T11:37:04;21.80;61.00
32296;DHT22;18781;51.550;5.418;2023-09-19T11:40:07;21.90;60.60
32296;DHT22;18781;51.550;5.418;2023-09-19T11:42:45;21.90;60.70
32296;DHT22;18781;51.550;5.418;2023-09-19T11:48:16;22.00;60.80
32296;DHT22;18781;51.550;5.418;2023-09-19T11:50:45;22.10;59.60
32296;DHT22;18781;51.550;5.418;2023-09-19T11:53:13;22.20;59.80
32296;DHT22;18781;51.550;5.418;2023-09-19T11:55:42;22.20;59.10
32296;DHT22;18781;51.550;5.418;2023-09-19T11:58:13;22.30;59.00
32296;DHT22;18781;51.550;5.418;2023-09-19T12:00:40;22.30;58.10
32296;DHT22;18781;51.550;5.418;2023-09-19T12:03:10;22.40;58.30
32296;DHT22;18781;51.550;5.418;2023-09-19T12:05:36;22.40;58.10
32296;DHT22;18781;51.550;5.418;2023-09-19T12:08:07;22.40;58.50
32296;DHT22;18781;51.550;5.418;2023-09-19T12:10:48;22.50;58.10
32296;DHT22;18781;51.550;5.418;2023-09-19T12:13:18;22.40;59.00
32296;DHT22;18781;51.550;5.418;2023-09-19T12:15:44;22.40;57.80
32296;DHT22;18781;51.550;5.418;2023-09-19T12:18:29;22.50;58.20
32296;DHT22;18781;51.550;5.418;2023-09-19T12:20:55;22.50;58.70
32296;DHT22;18781;51.550;5.418;2023-09-19T12:23:21;22.60;58.60
32296;DHT22;18781;51.550;5.418;2023-09-19T12:25:47;22.60;58.30
32296;DHT22;18781;51.550;5.418;2023-09-19T12:28:13;22.60;58.20
32296;DHT22;18781;51.550;5.418;2023-09-19T12:30:39;22.70;58.00
32296;DHT22;18781;51.550;5.418;2023-09-19T12:33:19;22.70;58.10
32296;DHT22;18781;51.550;5.418;2023-09-19T12:35:46;22.70;57.80
32296;DHT22;18781;51.550;5.418;2023-09-19T12:38:25;22.70;56.70
32296;DHT22;18781;51.550;5.418;2023-09-19T12:40:57;22.70;57.30
32296;DHT22;18781;51.550;5.418;2023-09-19T12:43:25;22.70;57.30
32296;DHT22;18781;51.550;5.418;2023-09-19T12:45:52;22.70;57.20
32296;DHT22;18781;51.550;5.418;2023-09-19T12:48:22;22.70;57.50
32296;DHT22;18781;51.550;5.418;2023-09-19T12:51:09;22.70;57.50
32296;DHT22;18781;51.550;5.418;2023-09-19T12:56:09;22.70;57.90
32296;DHT22;18781;51.550;5.418;2023-09-19T12:58:55;22.80;57.80
32296;DHT22;18781;51.550;5.418;2023-09-19T13:01:22;22.90;58.60
32296;DHT22;18781;51.550;5.418;2023-09-19T13:04:21;22.90;58.20
32296;DHT22;18781;51.550;5.418;2023-09-19T13:06:55;23.00;58.20
32296;DHT22;18781;51.550;5.418;2023-09-19T13:09:26;23.00;57.70
32296;DHT22;18781;51.550;5.418;2023-09-19T13:12:00;23.10;57.60
32296;DHT22;18781;51.550;5.418;2023-09-19T13:14:28;23.10;57.40
32296;DHT22;18781;51.550;5.418;2023-09-19T13:17:04;23.10;57.00
32296;DHT22;18781;51.550;5.418;2023-09-19T13:22:43;23.10;56.40
32296;DHT22;18781;51.550;5.418;2023-09-19T13:25:20;23.10;56.40
32296;DHT22;18781;51.550;5.418;2023-09-19T13:27:48;23.10;55.90
32296;DHT22;18781;51.550;5.418;2023-09-19T13:30:17;23.00;55.70
32296;DHT22;18781;51.550;5.418;2023-09-19T13:32:43;23.00;56.10
32296;DHT22;18781;51.550;5.418;2023-09-19T13:35:09;22.90;56.60
32296;DHT22;18781;51.550;5.418;2023-09-19T13:37:35;22.90;56.60
32296;DHT22;18781;51.550;5.418;2023-09-19T13:40:05;22.90;56.50
32296;DHT22;18781;51.550;5.418;2023-09-19T13:42:31;22.90;56.70
32296;DHT22;18781;51.550;5.418;2023-09-19T13:44:57;22.90;56.40
32296;DHT22;18781;51.550;5.418;2023-09-19T13:47:22;22.90;56.60
32296;DHT22;18781;51.550;5.418;2023-09-19T13:49:50;22.90;57.30
32296;DHT22;18781;51.550;5.418;2023-09-19T13:52:19;22.90;56.30
32296;DHT22;18781;51.550;5.418;2023-09-19T13:54:44;22.90;56.50
32296;DHT22;18781;51.550;5.418;2023-09-19T13:57:10;22.90;56.50
32296;DHT22;18781;51.550;5.418;2023-09-19T13:59:35;22.90;56.30
32296;DHT22;18781;51.550;5.418;2023-09-19T14:02:01;22.90;56.20
32296;DHT22;18781;51.550;5.418;2023-09-19T14:04:31;22.90;56.50
32296;DHT22;18781;51.550;5.418;2023-09-19T14:06:57;22.90;57.20
32296;DHT22;18781;51.550;5.418;2023-09-19T14:09:23;22.90;56.50
32296;DHT22;18781;51.550;5.418;2023-09-19T14:11:50;22.80;56.50
32296;DHT22;18781;51.550;5.418;2023-09-19T14:14:21;22.80;56.90
32296;DHT22;18781;51.550;5.418;2023-09-19T14:16:47;22.80;57.00
32296;DHT22;18781;51.550;5.418;2023-09-19T14:19:13;22.80;57.30
32296;DHT22;18781;51.550;5.418;2023-09-19T14:21:42;22.80;57.30
32296;DHT22;18781;51.550;5.418;2023-09-19T14:24:08;22.80;57.40
32296;DHT22;18781;51.550;5.418;2023-09-19T14:26:38;22.80;57.10
32296;DHT22;18781;51.550;5.418;2023-09-19T14:29:04;22.90;57.00
32296;DHT22;18781;51.550;5.418;2023-09-19T14:31:33;22.90;57.20
32296;DHT22;18781;51.550;5.418;2023-09-19T14:33:59;22.90;57.20
32296;DHT22;18781;51.550;5.418;2023-09-19T14:36:25;22.90;57.30
32296;DHT22;18781;51.550;5.418;2023-09-19T14:38:55;22.90;57.10
32296;DHT22;18781;51.550;5.418;2023-09-19T14:41:21;22.90;56.80
32296;DHT22;18781;51.550;5.418;2023-09-19T14:43:48;22.90;56.70
32296;DHT22;18781;51.550;5.418;2023-09-19T14:46:14;22.90;56.80
32296;DHT22;18781;51.550;5.418;2023-09-19T14:48:40;22.90;56.70
32296;DHT22;18781;51.550;5.418;2023-09-19T14:51:06;22.90;56.60
32296;DHT22;18781;51.550;5.418;2023-09-19T14:53:34;22.90;56.80
32296;DHT22;18781;51.550;5.418;2023-09-19T14:56:01;22.90;56.70
32296;DHT22;18781;51.550;5.418;2023-09-19T14:58:29;22.90;57.10
32296;DHT22;18781;51.550;5.418;2023-09-19T15:01:05;22.90;57.30
32296;DHT22;18781;51.550;5.418;2023-09-19T15:03:32;22.90;57.10
32296;DHT22;18781;51.550;5.418;2023-09-19T15:06:05;22.90;57.50
32296;DHT22;18781;51.550;5.418;2023-09-19T15:08:36;22.90;57.20
32296;DHT22;18781;51.550;5.418;2023-09-19T15:11:04;22.90;57.50
32296;DHT22;18781;51.550;5.418;2023-09-19T15:13:31;22.90;57.50
32296;DHT22;18781;51.550;5.418;2023-09-19T15:16:05;22.90;57.30
32296;DHT22;18781;51.550;5.418;2023-09-19T15:18:34;22.90;57.30
32296;DHT22;18781;51.550;5.418;2023-09-19T15:21:03;22.90;57.40
32296;DHT22;18781;51.550;5.418;2023-09-19T15:23:32;22.90;57.20
32296;DHT22;18781;51.550;5.418;2023-09-19T15:26:03;22.90;57.10
32296;DHT22;18781;51.550;5.418;2023-09-19T15:28:30;22.90;57.70
32296;DHT22;18781;51.550;5.418;2023-09-19T15:31:17;22.90;57.30
32296;DHT22;18781;51.550;5.418;2023-09-19T15:33:43;22.90;57.70
32296;DHT22;18781;51.550;5.418;2023-09-19T15:36:09;22.80;57.50
32296;DHT22;18781;51.550;5.418;2023-09-19T15:38:55;22.80;57.40
32296;DHT22;18781;51.550;5.418;2023-09-19T15:41:22;22.80;57.50
32296;DHT22;18781;51.550;5.418;2023-09-19T15:43:48;22.80;57.60
32296;DHT22;18781;51.550;5.418;2023-09-19T15:46:13;22.80;57.50
32296;DHT22;18781;51.550;5.418;2023-09-19T15:48:40;22.80;57.60
32296;DHT22;18781;51.550;5.418;2023-09-19T15:51:06;22.70;57.90
32296;DHT22;18781;51.550;5.418;2023-09-19T15:56:07;22.70;57.40
32296;DHT22;18781;51.550;5.418;2023-09-19T15:58:33;22.70;57.60
32296;DHT22;18781;51.550;5.418;2023-09-19T16:01:07;22.70;57.60
32296;DHT22;18781;51.550;5.418;2023-09-19T16:03:40;22.60;57.70
32296;DHT22;18781;51.550;5.418;2023-09-19T16:06:15;22.60;57.60
32296;DHT22;18781;51.550;5.418;2023-09-19T16:08:42;22.60;57.80
32296;DHT22;18781;51.550;5.418;2023-09-19T16:11:08;22.60;57.80
32296;DHT22;18781;51.550;5.418;2023-09-19T16:13:35;22.60;57.70
32296;DHT22;18781;51.550;5.418;2023-09-19T16:16:01;22.50;57.70
32296;DHT22;18781;51.550;5.418;2023-09-19T16:18:27;22.50;57.80
32296;DHT22;18781;51.550;5.418;2023-09-19T16:20:52;22.50;58.00
32296;DHT22;18781;51.550;5.418;2023-09-19T16:23:18;22.50;58.10
32296;DHT22;18781;51.550;5.418;2023-09-19T16:25:45;22.50;58.10
32296;DHT22;18781;51.550;5.418;2023-09-19T16:28:12;22.40;58.20
32296;DHT22;18781;51.550;5.418;2023-09-19T16:30:37;22.40;58.30